sensor_id;sensor_type;location;lat;lon;timestamp;P1;durP1;ratioP1;P2;durP2;ratioP2
2338;SDS011;1180;51.438;6.978;2022-11-06T00:01:09;4.80;;;4.30;;
2338;SDS011;1180;51.438;6.978;2022-11-06T00:03:37;4.50;;;4.10;;
2338;SDS011;1180;51.438;6.978;2022-11-06T00:06:10;4.50;;;4.10;;
2338;SDS011;1180;51.438;6.978;2022-11-06T00:09:00;4.87;;;4.47;;
2338;SDS011;1180;51.438;6.978;2022-11-06T00:11:28;7.10;;;4.37;;
2338;SDS011;1180;51.438;6.978;2022-11-06T00:13:54;6.57;;;4.90;;
2338;SDS011;1180;51.438;6.978;2022-11-06T00:16:20;7.27;;;4.80;;
2338;SDS011;1180;51.438;6.978;2022-11-06T00:18:46;5.93;;;4.07;;
2338;SDS011;1180;51.438;6.978;2022-11-06T00:21:16;7.87;;;3.80;;
2338;SDS011;1180;51.438;6.978;2022-11-06T00:23:43;6.40;;;4.33;;
2338;SDS011;1180;51.438;6.978;2022-11-06T00:26:11;4.57;;;4.13;;
2338;SDS011;1180;51.438;6.978;2022-11-06T00:28:40;5.77;;;5.10;;
2338;SDS011;1180;51.438;6.978;2022-11-06T00:31:07;6.13;;;3.77;;
2338;SDS011;1180;51.438;6.978;2022-11-06T00:33:34;5.60;;;4.00;;
2338;SDS011;1180;51.438;6.978;2022-11-06T00:36:03;7.50;;;4.13;;
2338;SDS011;1180;51.438;6.978;2022-11-06T00:38:30;4.90;;;4.00;;
2338;SDS011;1180;51.438;6.978;2022-11-06T00:40:56;6.13;;;4.00;;
2338;SDS011;1180;51.438;6.978;2022-11-06T00:43:25;4.47;;;3.97;;
2338;SDS011;1180;51.438;6.978;2022-11-06T00:45:50;4.43;;;3.70;;
2338;SDS011;1180;51.438;6.978;2022-11-06T00:48:16;5.60;;;3.80;;
2338;SDS011;1180;51.438;6.978;2022-11-06T00:50:41;5.50;;;3.57;;
2338;SDS011;1180;51.438;6.978;2022-11-06T00:53:07;3.60;;;3.30;;
2338;SDS011;1180;51.438;6.978;2022-11-06T00:55:32;5.60;;;3.60;;
2338;SDS011;1180;51.438;6.978;2022-11-06T00:57:57;9.57;;;4.37;;
2338;SDS011;1180;51.438;6.978;2022-11-06T01:00:23;8.87;;;3.53;;
2338;SDS011;1180;51.438;6.978;2022-11-06T01:02:48;7.70;;;3.67;;
2338;SDS011;1180;51.438;6.978;2022-11-06T01:05:13;3.77;;;3.47;;
2338;SDS011;1180;51.438;6.978;2022-11-06T01:07:39;5.90;;;3.70;;
2338;SDS011;1180;51.438;6.978;2022-11-06T01:10:05;7.10;;;3.90;;
2338;SDS011;1180;51.438;6.978;2022-11-06T01:12:31;5.10;;;2.87;;
2338;SDS011;1180;51.438;6.978;2022-11-06T01:14:58;4.57;;;3.00;;
2338;SDS011;1180;51.438;6.978;2022-11-06T01:17:23;4.00;;;3.60;;
2338;SDS011;1180;51.438;6.978;2022-11-06T01:19:48;5.03;;;3.00;;
2338;SDS011;1180;51.438;6.978;2022-11-06T01:22:14;4.90;;;3.70;;
2338;SDS011;1180;51.438;6.978;2022-11-06T01:24:39;6.57;;;3.13;;
2338;SDS011;1180;51.438;6.978;2022-11-06T01:27:05;4.67;;;2.70;;
2338;SDS011;1180;51.438;6.978;2022-11-06T01:29:31;5.93;;;3.20;;
2338;SDS011;1180;51.438;6.978;2022-11-06T01:31:56;5.67;;;3.40;;
2338;SDS011;1180;51.438;6.978;2022-11-06T01:34:22;5.37;;;4.20;;
2338;SDS011;1180;51.438;6.978;2022-11-06T01:36:47;4.90;;;3.23;;
2338;SDS011;1180;51.438;6.978;2022-11-06T01:39:13;3.70;;;2.97;;
2338;SDS011;1180;51.438;6.978;2022-11-06T01:41:49;6.47;;;3.07;;
2338;SDS011;1180;51.438;6.978;2022-11-06T01:47:00;7.53;;;3.00;;
2338;SDS011;1180;51.438;6.978;2022-11-06T01:49:27;5.20;;;2.90;;
2338;SDS011;1180;51.438;6.978;2022-11-06T01:51:58;4.53;;;2.67;;
2338;SDS011;1180;51.438;6.978;2022-11-06T01:54:27;6.00;;;2.73;;
2338;SDS011;1180;51.438;6.978;2022-11-06T01:56:55;3.90;;;2.70;;
2338;SDS011;1180;51.438;6.978;2022-11-06T01:59:24;6.07;;;2.47;;
2338;SDS011;1180;51.438;6.978;2022-11-06T02:01:52;3.60;;;2.60;;
2338;SDS011;1180;51.438;6.978;2022-11-06T02:04:20;4.90;;;2.53;;
2338;SDS011;1180;51.438;6.978;2022-11-06T02:06:48;9.23;;;3.07;;
2338;SDS011;1180;51.438;6.978;2022-11-06T02:09:14;4.50;;;2.83;;
2338;SDS011;1180;51.438;6.978;2022-11-06T02:11:41;5.27;;;3.17;;
2338;SDS011;1180;51.438;6.978;2022-11-06T02:14:47;5.20;;;2.50;;
2338;SDS011;1180;51.438;6.978;2022-11-06T02:22:58;4.67;;;2.53;;
2338;SDS011;1180;51.438;6.978;2022-11-06T02:25:37;6.00;;;2.80;;
2338;SDS011;1180;51.438;6.978;2022-11-06T02:28:08;7.53;;;3.53;;
2338;SDS011;1180;51.438;6.978;2022-11-06T02:30:40;3.83;;;3.10;;
2338;SDS011;1180;51.438;6.978;2022-11-06T02:33:11;3.40;;;2.33;;
2338;SDS011;1180;51.438;6.978;2022-11-06T02:35:51;4.20;;;2.93;;
2338;SDS011;1180;51.438;6.978;2022-11-06T02:38:22;7.70;;;3.00;;
2338;SDS011;1180;51.438;6.978;2022-11-06T02:40:54;4.03;;;2.63;;
2338;SDS011;1180;51.438;6.978;2022-11-06T02:43:32;6.80;;;2.50;;
2338;SDS011;1180;51.438;6.978;2022-11-06T02:46:08;8.90;;;2.80;;
2338;SDS011;1180;51.438;6.978;2022-11-06T02:48:40;9.20;;;3.07;;
2338;SDS011;1180;51.438;6.978;2022-11-06T02:51:09;6.30;;;2.80;;
2338;SDS011;1180;51.438;6.978;2022-11-06T02:53:39;3.20;;;2.27;;
2338;SDS011;1180;51.438;6.978;2022-11-06T02:56:10;5.70;;;3.07;;
2338;SDS011;1180;51.438;6.978;2022-11-06T02:58:48;10.73;;;2.70;;
2338;SDS011;1180;51.438;6.978;2022-11-06T03:02:01;5.13;;;2.60;;
2338;SDS011;1180;51.438;6.978;2022-11-06T03:04:28;7.50;;;3.20;;
2338;SDS011;1180;51.438;6.978;2022-11-06T03:07:38;5.70;;;2.77;;
2338;SDS011;1180;51.438;6.978;2022-11-06T03:10:03;5.60;;;2.77;;
2338;SDS011;1180;51.438;6.978;2022-11-06T03:12:31;6.37;;;2.80;;
2338;SDS011;1180;51.438;6.978;2022-11-06T03:15:05;3.00;;;2.33;;
2338;SDS011;1180;51.438;6.978;2022-11-06T03:17:43;2.60;;;2.17;;
2338;SDS011;1180;51.438;6.978;2022-11-06T03:20:17;3.30;;;1.87;;
2338;SDS011;1180;51.438;6.978;2022-11-06T03:27:59;4.17;;;2.17;;
2338;SDS011;1180;51.438;6.978;2022-11-06T03:30:34;3.27;;;2.20;;
2338;SDS011;1180;51.438;6.978;2022-11-06T03:33:14;3.50;;;2.40;;
2338;SDS011;1180;51.438;6.978;2022-11-06T03:35:46;4.27;;;3.07;;
2338;SDS011;1180;51.438;6.978;2022-11-06T03:38:20;3.40;;;2.40;;
2338;SDS011;1180;51.438;6.978;2022-11-06T03:40:50;4.90;;;2.57;;
2338;SDS011;1180;51.438;6.978;2022-11-06T03:43:20;4.97;;;2.60;;
2338;SDS011;1180;51.438;6.978;2022-11-06T03:45:49;3.90;;;2.20;;
2338;SDS011;1180;51.438;6.978;2022-11-06T03:48:20;3.70;;;2.70;;
2338;SDS011;1180;51.438;6.978;2022-11-06T03:51:19;3.47;;;2.13;;
2338;SDS011;1180;51.438;6.978;2022-11-06T03:53:51;6.10;;;2.40;;
2338;SDS011;1180;51.438;6.978;2022-11-06T03:58:49;5.03;;;2.40;;
2338;SDS011;1180;51.438;6.978;2022-11-06T04:01:16;4.60;;;2.33;;
2338;SDS011;1180;51.438;6.978;2022-11-06T04:03:51;4.60;;;1.97;;
2338;SDS011;1180;51.438;6.978;2022-11-06T04:09:01;3.80;;;2.40;;
2338;SDS011;1180;51.438;6.978;2022-11-06T04:11:53;3.17;;;1.80;;
2338;SDS011;1180;51.438;6.978;2022-11-06T04:14:40;4.30;;;2.43;;
2338;SDS011;1180;51.438;6.978;2022-11-06T04:17:10;2.30;;;2.03;;
2338;SDS011;1180;51.438;6.978;2022-11-06T04:19:38;3.60;;;2.23;;
2338;SDS011;1180;51.438;6.978;2022-11-06T04:22:16;5.53;;;2.37;;
2338;SDS011;1180;51.438;6.978;2022-11-06T04:28:00;3.33;;;2.03;;
2338;SDS011;1180;51.438;6.978;2022-11-06T04:30:47;4.20;;;2.20;;
2338;SDS011;1180;51.438;6.978;2022-11-06T04:33:20;4.97;;;2.50;;
2338;SDS011;1180;51.438;6.978;2022-11-06T04:41:57;3.50;;;1.70;;
2338;SDS011;1180;51.438;6.978;2022-11-06T04:44:31;2.73;;;2.33;;
2338;SDS011;1180;51.438;6.978;2022-11-06T04:47:02;4.03;;;2.17;;
2338;SDS011;1180;51.438;6.978;2022-11-06T04:49:30;3.73;;;2.00;;
2338;SDS011;1180;51.438;6.978;2022-11-06T04:51:59;5.60;;;2.60;;
2338;SDS011;1180;51.438;6.978;2022-11-06T04:54:28;3.47;;;2.47;;
2338;SDS011;1180;51.438;6.978;2022-11-06T04:56:57;5.87;;;2.00;;
2338;SDS011;1180;51.438;6.978;2022-11-06T04:59:24;4.93;;;2.17;;
2338;SDS011;1180;51.438;6.978;2022-11-06T05:01:51;5.63;;;2.30;;
2338;SDS011;1180;51.438;6.978;2022-11-06T05:04:17;4.20;;;2.20;;
2338;SDS011;1180;51.438;6.978;2022-11-06T05:06:42;2.80;;;1.77;;
2338;SDS011;1180;51.438;6.978;2022-11-06T05:09:08;4.80;;;2.17;;
2338;SDS011;1180;51.438;6.978;2022-11-06T05:11:33;6.57;;;2.27;;
2338;SDS011;1180;51.438;6.978;2022-11-06T05:13:58;7.07;;;1.93;;
2338;SDS011;1180;51.438;6.978;2022-11-06T05:16:24;5.67;;;2.27;;
2338;SDS011;1180;51.438;6.978;2022-11-06T05:18:49;3.70;;;2.30;;
2338;SDS011;1180;51.438;6.978;2022-11-06T05:21:14;4.33;;;2.00;;
2338;SDS011;1180;51.438;6.978;2022-11-06T05:23:58;5.03;;;2.37;;
2338;SDS011;1180;51.438;6.978;2022-11-06T05:26:24;2.67;;;1.83;;
2338;SDS011;1180;51.438;6.978;2022-11-06T05:28:49;5.03;;;2.20;;
2338;SDS011;1180;51.438;6.978;2022-11-06T05:31:15;4.20;;;2.00;;
2338;SDS011;1180;51.438;6.978;2022-11-06T05:33:40;3.70;;;1.67;;
2338;SDS011;1180;51.438;6.978;2022-11-06T05:36:06;3.47;;;1.90;;
2338;SDS011;1180;51.438;6.978;2022-11-06T05:38:31;3.73;;;2.03;;
2338;SDS011;1180;51.438;6.978;2022-11-06T05:40:57;7.00;;;1.53;;
2338;SDS011;1180;51.438;6.978;2022-11-06T05:43:23;4.23;;;1.87;;
2338;SDS011;1180;51.438;6.978;2022-11-06T05:45:49;4.10;;;1.57;;
2338;SDS011;1180;51.438;6.978;2022-11-06T05:48:16;2.93;;;1.60;;
2338;SDS011;1180;51.438;6.978;2022-11-06T05:50:41;6.23;;;2.20;;
2338;SDS011;1180;51.438;6.978;2022-11-06T05:53:07;4.20;;;1.80;;
2338;SDS011;1180;51.438;6.978;2022-11-06T05:55:32;7.10;;;2.27;;
2338;SDS011;1180;51.438;6.978;2022-11-06T05:57:58;2.60;;;1.83;;
2338;SDS011;1180;51.438;6.978;2022-11-06T06:00:23;6.30;;;1.73;;
2338;SDS011;1180;51.438;6.978;2022-11-06T06:02:49;5.50;;;1.80;;
2338;SDS011;1180;51.438;6.978;2022-11-06T06:05:14;1.73;;;1.43;;
2338;SDS011;1180;51.438;6.978;2022-11-06T06:07:40;5.00;;;1.77;;
2338;SDS011;1180;51.438;6.978;2022-11-06T06:10:06;3.97;;;2.10;;
2338;SDS011;1180;51.438;6.978;2022-11-06T06:12:32;6.20;;;2.63;;
2338;SDS011;1180;51.438;6.978;2022-11-06T06:14:57;3.33;;;1.80;;
2338;SDS011;1180;51.438;6.978;2022-11-06T06:17:23;4.80;;;2.13;;
2338;SDS011;1180;51.438;6.978;2022-11-06T06:19:48;4.40;;;1.80;;
2338;SDS011;1180;51.438;6.978;2022-11-06T06:22:14;2.73;;;1.60;;
2338;SDS011;1180;51.438;6.978;2022-11-06T06:24:39;2.63;;;1.83;;
2338;SDS011;1180;51.438;6.978;2022-11-06T06:27:05;5.23;;;2.33;;
2338;SDS011;1180;51.438;6.978;2022-11-06T06:29:31;3.40;;;1.70;;
2338;SDS011;1180;51.438;6.978;2022-11-06T06:31:56;6.80;;;1.50;;
2338;SDS011;1180;51.438;6.978;2022-11-06T06:34:21;4.13;;;1.90;;
2338;SDS011;1180;51.438;6.978;2022-11-06T06:36:51;3.10;;;1.67;;
2338;SDS011;1180;51.438;6.978;2022-11-06T06:39:17;5.80;;;1.80;;
2338;SDS011;1180;51.438;6.978;2022-11-06T06:41:43;6.13;;;2.87;;
2338;SDS011;1180;51.438;6.978;2022-11-06T06:44:09;2.83;;;1.83;;
2338;SDS011;1180;51.438;6.978;2022-11-06T06:46:34;3.17;;;1.40;;
2338;SDS011;1180;51.438;6.978;2022-11-06T06:48:59;6.13;;;1.97;;
2338;SDS011;1180;51.438;6.978;2022-11-06T06:51:25;3.83;;;1.73;;
2338;SDS011;1180;51.438;6.978;2022-11-06T06:53:50;8.13;;;1.37;;
2338;SDS011;1180;51.438;6.978;2022-11-06T06:56:16;8.23;;;2.23;;
2338;SDS011;1180;51.438;6.978;2022-11-06T06:58:41;6.27;;;2.00;;
2338;SDS011;1180;51.438;6.978;2022-11-06T07:01:06;4.40;;;2.23;;
2338;SDS011;1180;51.438;6.978;2022-11-06T07:03:35;3.97;;;1.60;;
2338;SDS011;1180;51.438;6.978;2022-11-06T07:06:01;4.03;;;2.03;;
2338;SDS011;1180;51.438;6.978;2022-11-06T07:08:27;2.83;;;1.97;;
2338;SDS011;1180;51.438;6.978;2022-11-06T07:10:56;4.33;;;1.80;;
2338;SDS011;1180;51.438;6.978;2022-11-06T07:13:33;2.97;;;1.83;;
2338;SDS011;1180;51.438;6.978;2022-11-06T07:16:01;2.20;;;1.70;;
2338;SDS011;1180;51.438;6.978;2022-11-06T07:18:33;5.30;;;1.77;;
2338;SDS011;1180;51.438;6.978;2022-11-06T07:20:59;5.40;;;1.40;;
2338;SDS011;1180;51.438;6.978;2022-11-06T07:23:25;4.37;;;1.60;;
2338;SDS011;1180;51.438;6.978;2022-11-06T07:25:51;3.10;;;1.50;;
2338;SDS011;1180;51.438;6.978;2022-11-06T07:28:18;4.40;;;2.07;;
2338;SDS011;1180;51.438;6.978;2022-11-06T07:30:44;3.23;;;1.37;;
2338;SDS011;1180;51.438;6.978;2022-11-06T07:33:10;3.47;;;1.83;;
2338;SDS011;1180;51.438;6.978;2022-11-06T07:35:36;4.80;;;2.17;;
2338;SDS011;1180;51.438;6.978;2022-11-06T07:38:02;5.47;;;1.90;;
2338;SDS011;1180;51.438;6.978;2022-11-06T07:40:30;4.53;;;1.90;;
2338;SDS011;1180;51.438;6.978;2022-11-06T07:43:01;3.30;;;1.37;;
2338;SDS011;1180;51.438;6.978;2022-11-06T07:45:29;2.80;;;2.20;;
2338;SDS011;1180;51.438;6.978;2022-11-06T07:47:55;5.47;;;1.90;;
2338;SDS011;1180;51.438;6.978;2022-11-06T07:50:21;4.73;;;1.90;;
2338;SDS011;1180;51.438;6.978;2022-11-06T07:52:46;3.70;;;1.70;;
2338;SDS011;1180;51.438;6.978;2022-11-06T07:55:12;2.70;;;1.50;;
2338;SDS011;1180;51.438;6.978;2022-11-06T07:57:37;5.90;;;2.20;;
2338;SDS011;1180;51.438;6.978;2022-11-06T08:00:03;7.00;;;1.93;;
2338;SDS011;1180;51.438;6.978;2022-11-06T08:02:30;3.80;;;2.00;;
2338;SDS011;1180;51.438;6.978;2022-11-06T08:04:55;5.63;;;1.63;;
2338;SDS011;1180;51.438;6.978;2022-11-06T08:07:20;6.07;;;2.00;;
2338;SDS011;1180;51.438;6.978;2022-11-06T08:09:46;2.90;;;1.50;;
2338;SDS011;1180;51.438;6.978;2022-11-06T08:12:11;3.63;;;1.47;;
2338;SDS011;1180;51.438;6.978;2022-11-06T08:14:38;3.17;;;1.50;;
2338;SDS011;1180;51.438;6.978;2022-11-06T08:17:04;5.57;;;1.80;;
2338;SDS011;1180;51.438;6.978;2022-11-06T08:19:29;2.37;;;1.60;;
2338;SDS011;1180;51.438;6.978;2022-11-06T08:21:55;2.67;;;1.50;;
2338;SDS011;1180;51.438;6.978;2022-11-06T08:24:20;2.37;;;1.30;;
2338;SDS011;1180;51.438;6.978;2022-11-06T08:26:46;3.20;;;2.00;;
2338;SDS011;1180;51.438;6.978;2022-11-06T08:29:11;4.53;;;1.90;;
2338;SDS011;1180;51.438;6.978;2022-11-06T08:31:37;6.97;;;1.80;;
2338;SDS011;1180;51.438;6.978;2022-11-06T08:34:02;6.47;;;2.60;;
2338;SDS011;1180;51.438;6.978;2022-11-06T08:36:27;6.80;;;3.10;;
2338;SDS011;1180;51.438;6.978;2022-11-06T08:38:53;3.20;;;1.40;;
2338;SDS011;1180;51.438;6.978;2022-11-06T08:41:18;4.43;;;2.00;;
2338;SDS011;1180;51.438;6.978;2022-11-06T08:43:43;7.20;;;1.87;;
2338;SDS011;1180;51.438;6.978;2022-11-06T08:46:09;2.43;;;1.60;;
2338;SDS011;1180;51.438;6.978;2022-11-06T08:48:35;5.90;;;2.07;;
2338;SDS011;1180;51.438;6.978;2022-11-06T08:51:02;6.57;;;2.07;;
2338;SDS011;1180;51.438;6.978;2022-11-06T08:53:28;5.93;;;2.13;;
2338;SDS011;1180;51.438;6.978;2022-11-06T08:55:53;2.07;;;1.60;;
2338;SDS011;1180;51.438;6.978;2022-11-06T08:58:19;2.30;;;1.83;;
2338;SDS011;1180;51.438;6.978;2022-11-06T09:00:44;4.63;;;1.50;;
2338;SDS011;1180;51.438;6.978;2022-11-06T09:03:10;2.33;;;1.73;;
2338;SDS011;1180;51.438;6.978;2022-11-06T09:05:38;4.10;;;1.63;;
2338;SDS011;1180;51.438;6.978;2022-11-06T09:08:05;6.50;;;1.60;;
2338;SDS011;1180;51.438;6.978;2022-11-06T09:10:35;6.67;;;2.00;;
2338;SDS011;1180;51.438;6.978;2022-11-06T09:13:02;2.63;;;1.60;;
2338;SDS011;1180;51.438;6.978;2022-11-06T09:15:27;3.00;;;1.50;;
2338;SDS011;1180;51.438;6.978;2022-11-06T09:17:53;5.60;;;2.00;;
2338;SDS011;1180;51.438;6.978;2022-11-06T09:20:19;1.50;;;1.40;;
2338;SDS011;1180;51.438;6.978;2022-11-06T09:22:46;6.93;;;2.00;;
2338;SDS011;1180;51.438;6.978;2022-11-06T09:25:12;2.50;;;1.60;;
2338;SDS011;1180;51.438;6.978;2022-11-06T09:27:45;9.00;;;3.97;;
2338;SDS011;1180;51.438;6.978;2022-11-06T09:30:13;4.70;;;2.77;;
2338;SDS011;1180;51.438;6.978;2022-11-06T09:32:44;5.27;;;1.87;;
2338;SDS011;1180;51.438;6.978;2022-11-06T09:35:13;2.77;;;2.17;;
2338;SDS011;1180;51.438;6.978;2022-11-06T09:37:39;8.27;;;4.73;;
2338;SDS011;1180;51.438;6.978;2022-11-06T09:40:05;4.60;;;3.30;;
2338;SDS011;1180;51.438;6.978;2022-11-06T09:45:37;4.00;;;2.30;;
2338;SDS011;1180;51.438;6.978;2022-11-06T09:50:36;3.93;;;2.10;;
2338;SDS011;1180;51.438;6.978;2022-11-06T09:53:09;6.87;;;2.57;;
2338;SDS011;1180;51.438;6.978;2022-11-06T09:55:41;4.00;;;3.17;;
2338;SDS011;1180;51.438;6.978;2022-11-06T09:58:13;8.10;;;4.00;;
2338;SDS011;1180;51.438;6.978;2022-11-06T10:01:18;7.23;;;2.70;;
2338;SDS011;1180;51.438;6.978;2022-11-06T10:03:51;3.03;;;1.70;;
2338;SDS011;1180;51.438;6.978;2022-11-06T10:06:21;3.03;;;2.40;;
2338;SDS011;1180;51.438;6.978;2022-11-06T10:08:48;7.10;;;4.30;;
2338;SDS011;1180;51.438;6.978;2022-11-06T10:19:24;10.83;;;4.67;;
2338;SDS011;1180;51.438;6.978;2022-11-06T10:22:21;5.10;;;2.73;;
2338;SDS011;1180;51.438;6.978;2022-11-06T10:24:58;3.60;;;1.57;;
2338;SDS011;1180;51.438;6.978;2022-11-06T10:30:17;2.17;;;1.77;;
2338;SDS011;1180;51.438;6.978;2022-11-06T10:35:30;2.20;;;1.70;;
2338;SDS011;1180;51.438;6.978;2022-11-06T10:38:12;3.13;;;1.57;;
2338;SDS011;1180;51.438;6.978;2022-11-06T10:40:41;2.37;;;1.30;;
2338;SDS011;1180;51.438;6.978;2022-11-06T10:45:46;4.40;;;2.03;;
2338;SDS011;1180;51.438;6.978;2022-11-06T10:50:47;8.73;;;2.30;;
2338;SDS011;1180;51.438;6.978;2022-11-06T10:58:53;2.83;;;1.50;;
2338;SDS011;1180;51.438;6.978;2022-11-06T11:01:19;3.87;;;1.70;;
2338;SDS011;1180;51.438;6.978;2022-11-06T11:03:44;2.63;;;1.80;;
2338;SDS011;1180;51.438;6.978;2022-11-06T11:06:11;4.80;;;1.93;;
2338;SDS011;1180;51.438;6.978;2022-11-06T11:08:38;2.63;;;1.97;;
2338;SDS011;1180;51.438;6.978;2022-11-06T11:13:49;2.93;;;1.60;;
2338;SDS011;1180;51.438;6.978;2022-11-06T11:16:16;3.77;;;2.07;;
2338;SDS011;1180;51.438;6.978;2022-11-06T11:18:45;6.13;;;2.73;;
2338;SDS011;1180;51.438;6.978;2022-11-06T11:23:37;5.97;;;2.77;;
2338;SDS011;1180;51.438;6.978;2022-11-06T11:28:49;9.03;;;3.97;;
2338;SDS011;1180;51.438;6.978;2022-11-06T11:31:17;7.83;;;3.20;;
2338;SDS011;1180;51.438;6.978;2022-11-06T11:33:47;5.17;;;2.57;;
2338;SDS011;1180;51.438;6.978;2022-11-06T11:36:15;11.37;;;2.90;;
2338;SDS011;1180;51.438;6.978;2022-11-06T11:38:41;4.70;;;2.27;;
2338;SDS011;1180;51.438;6.978;2022-11-06T11:41:28;3.93;;;2.70;;
2338;SDS011;1180;51.438;6.978;2022-11-06T11:46:27;3.80;;;2.20;;
2338;SDS011;1180;51.438;6.978;2022-11-06T11:48:53;6.93;;;3.30;;
2338;SDS011;1180;51.438;6.978;2022-11-06T11:56:34;3.80;;;2.13;;
2338;SDS011;1180;51.438;6.978;2022-11-06T11:59:13;5.33;;;3.23;;
2338;SDS011;1180;51.438;6.978;2022-11-06T12:01:45;5.37;;;2.47;;
2338;SDS011;1180;51.438;6.978;2022-11-06T12:04:20;3.30;;;2.00;;
2338;SDS011;1180;51.438;6.978;2022-11-06T12:06:50;4.30;;;2.50;;
2338;SDS011;1180;51.438;6.978;2022-11-06T12:09:28;2.70;;;2.07;;
2338;SDS011;1180;51.438;6.978;2022-11-06T12:11:57;4.40;;;1.97;;
2338;SDS011;1180;51.438;6.978;2022-11-06T12:16:57;3.87;;;2.50;;
2338;SDS011;1180;51.438;6.978;2022-11-06T12:19:27;4.50;;;3.53;;
2338;SDS011;1180;51.438;6.978;2022-11-06T12:22:00;4.90;;;3.33;;
2338;SDS011;1180;51.438;6.978;2022-11-06T12:24:40;5.90;;;3.90;;
2338;SDS011;1180;51.438;6.978;2022-11-06T12:27:14;3.93;;;3.00;;
2338;SDS011;1180;51.438;6.978;2022-11-06T12:29:47;3.63;;;1.80;;
2338;SDS011;1180;51.438;6.978;2022-11-06T12:35:29;6.47;;;3.00;;
2338;SDS011;1180;51.438;6.978;2022-11-06T12:43:46;3.20;;;2.37;;
2338;SDS011;1180;51.438;6.978;2022-11-06T12:46:35;3.00;;;1.93;;
2338;SDS011;1180;51.438;6.978;2022-11-06T12:50:03;2.43;;;1.60;;
2338;SDS011;1180;51.438;6.978;2022-11-06T12:52:44;3.77;;;2.30;;
2338;SDS011;1180;51.438;6.978;2022-11-06T12:55:25;2.27;;;2.03;;
2338;SDS011;1180;51.438;6.978;2022-11-06T13:01:15;2.23;;;1.43;;
2338;SDS011;1180;51.438;6.978;2022-11-06T13:04:12;1.87;;;1.67;;
2338;SDS011;1180;51.438;6.978;2022-11-06T13:06:57;2.47;;;1.60;;
2338;SDS011;1180;51.438;6.978;2022-11-06T13:14:44;3.37;;;2.13;;
2338;SDS011;1180;51.438;6.978;2022-11-06T13:19:54;2.93;;;1.87;;
2338;SDS011;1180;51.438;6.978;2022-11-06T13:25:15;2.40;;;1.60;;
2338;SDS011;1180;51.438;6.978;2022-11-06T13:30:30;3.23;;;1.80;;
2338;SDS011;1180;51.438;6.978;2022-11-06T13:35:24;7.47;;;1.67;;
2338;SDS011;1180;51.438;6.978;2022-11-06T13:37:50;4.23;;;1.73;;
2338;SDS011;1180;51.438;6.978;2022-11-06T13:40:22;3.10;;;1.73;;
2338;SDS011;1180;51.438;6.978;2022-11-06T13:42:53;5.47;;;1.90;;
2338;SDS011;1180;51.438;6.978;2022-11-06T13:45:23;3.03;;;1.87;;
2338;SDS011;1180;51.438;6.978;2022-11-06T13:47:56;1.70;;;1.60;;
2338;SDS011;1180;51.438;6.978;2022-11-06T14:08:06;3.30;;;1.50;;
2338;SDS011;1180;51.438;6.978;2022-11-06T14:10:41;8.57;;;2.67;;
2338;SDS011;1180;51.438;6.978;2022-11-06T14:13:14;6.03;;;2.97;;
2338;SDS011;1180;51.438;6.978;2022-11-06T14:15:40;4.50;;;3.60;;
2338;SDS011;1180;51.438;6.978;2022-11-06T14:18:13;3.03;;;2.77;;
2338;SDS011;1180;51.438;6.978;2022-11-06T14:20:46;5.27;;;2.73;;
2338;SDS011;1180;51.438;6.978;2022-11-06T14:28:28;2.10;;;1.90;;
2338;SDS011;1180;51.438;6.978;2022-11-06T14:30:54;2.57;;;1.60;;
2338;SDS011;1180;51.438;6.978;2022-11-06T14:38:47;2.87;;;2.00;;
2338;SDS011;1180;51.438;6.978;2022-11-06T14:46:50;5.70;;;3.70;;
2338;SDS011;1180;51.438;6.978;2022-11-06T14:49:32;2.77;;;1.60;;
2338;SDS011;1180;51.438;6.978;2022-11-06T14:52:07;2.40;;;1.80;;
2338;SDS011;1180;51.438;6.978;2022-11-06T14:54:36;2.70;;;1.80;;
2338;SDS011;1180;51.438;6.978;2022-11-06T14:57:05;1.93;;;1.73;;
2338;SDS011;1180;51.438;6.978;2022-11-06T14:59:34;2.90;;;1.60;;
2338;SDS011;1180;51.438;6.978;2022-11-06T15:02:07;2.00;;;1.13;;
2338;SDS011;1180;51.438;6.978;2022-11-06T15:04:42;4.60;;;2.10;;
2338;SDS011;1180;51.438;6.978;2022-11-06T15:07:33;2.13;;;1.93;;
2338;SDS011;1180;51.438;6.978;2022-11-06T15:10:03;5.87;;;3.60;;
2338;SDS011;1180;51.438;6.978;2022-11-06T15:15:32;4.83;;;3.60;;
2338;SDS011;1180;51.438;6.978;2022-11-06T15:17:59;6.80;;;3.93;;
2338;SDS011;1180;51.438;6.978;2022-11-06T15:20:28;10.50;;;3.50;;
2338;SDS011;1180;51.438;6.978;2022-11-06T15:22:57;12.10;;;5.03;;
2338;SDS011;1180;51.438;6.978;2022-11-06T15:25:24;3.73;;;2.40;;
2338;SDS011;1180;51.438;6.978;2022-11-06T15:28:00;7.40;;;2.87;;
2338;SDS011;1180;51.438;6.978;2022-11-06T15:30:30;2.87;;;1.87;;
2338;SDS011;1180;51.438;6.978;2022-11-06T15:33:04;6.60;;;3.90;;
2338;SDS011;1180;51.438;6.978;2022-11-06T15:35:37;4.73;;;2.67;;
2338;SDS011;1180;51.438;6.978;2022-11-06T15:38:05;3.33;;;1.87;;
2338;SDS011;1180;51.438;6.978;2022-11-06T15:40:37;4.93;;;3.20;;
2338;SDS011;1180;51.438;6.978;2022-11-06T15:48:36;2.00;;;1.60;;
2338;SDS011;1180;51.438;6.978;2022-11-06T15:53:51;3.40;;;2.87;;
2338;SDS011;1180;51.438;6.978;2022-11-06T15:56:18;6.73;;;4.17;;
2338;SDS011;1180;51.438;6.978;2022-11-06T15:59:09;9.47;;;4.00;;
2338;SDS011;1180;51.438;6.978;2022-11-06T16:01:39;4.70;;;3.27;;
2338;SDS011;1180;51.438;6.978;2022-11-06T16:04:12;4.27;;;2.20;;
2338;SDS011;1180;51.438;6.978;2022-11-06T16:06:41;4.67;;;2.53;;
2338;SDS011;1180;51.438;6.978;2022-11-06T16:09:13;2.20;;;1.77;;
2338;SDS011;1180;51.438;6.978;2022-11-06T16:11:42;3.47;;;1.97;;
2338;SDS011;1180;51.438;6.978;2022-11-06T16:14:10;2.60;;;1.90;;
2338;SDS011;1180;51.438;6.978;2022-11-06T16:16:45;2.80;;;2.00;;
2338;SDS011;1180;51.438;6.978;2022-11-06T16:19:19;2.90;;;1.90;;
2338;SDS011;1180;51.438;6.978;2022-11-06T16:21:59;4.80;;;2.53;;
2338;SDS011;1180;51.438;6.978;2022-11-06T16:24:29;4.27;;;2.07;;
2338;SDS011;1180;51.438;6.978;2022-11-06T16:27:04;2.93;;;2.40;;
2338;SDS011;1180;51.438;6.978;2022-11-06T16:29:30;5.10;;;1.77;;
2338;SDS011;1180;51.438;6.978;2022-11-06T16:31:57;4.13;;;1.57;;
2338;SDS011;1180;51.438;6.978;2022-11-06T16:37:00;2.10;;;1.53;;
2338;SDS011;1180;51.438;6.978;2022-11-06T16:47:20;2.70;;;2.50;;
2338;SDS011;1180;51.438;6.978;2022-11-06T16:49:50;3.33;;;2.23;;
2338;SDS011;1180;51.438;6.978;2022-11-06T16:52:30;5.30;;;2.00;;
2338;SDS011;1180;51.438;6.978;2022-11-06T16:54:58;5.03;;;2.37;;
2338;SDS011;1180;51.438;6.978;2022-11-06T16:57:42;2.20;;;2.00;;
2338;SDS011;1180;51.438;6.978;2022-11-06T17:03:28;2.53;;;2.10;;
2338;SDS011;1180;51.438;6.978;2022-11-06T17:05:49;6.10;;;2.33;;
2338;SDS011;1180;51.438;6.978;2022-11-06T17:08:21;3.10;;;2.23;;
2338;SDS011;1180;51.438;6.978;2022-11-06T17:10:56;5.47;;;2.40;;
2338;SDS011;1180;51.438;6.978;2022-11-06T17:13:31;3.90;;;2.40;;
2338;SDS011;1180;51.438;6.978;2022-11-06T17:16:00;4.70;;;1.90;;
2338;SDS011;1180;51.438;6.978;2022-11-06T17:18:28;2.20;;;2.00;;
2338;SDS011;1180;51.438;6.978;2022-11-06T17:20:57;7.80;;;4.00;;
2338;SDS011;1180;51.438;6.978;2022-11-06T17:23:27;6.87;;;3.60;;
2338;SDS011;1180;51.438;6.978;2022-11-06T17:25:58;6.03;;;3.50;;
2338;SDS011;1180;51.438;6.978;2022-11-06T17:28:27;6.80;;;3.73;;
2338;SDS011;1180;51.438;6.978;2022-11-06T17:30:52;14.87;;;7.10;;
2338;SDS011;1180;51.438;6.978;2022-11-06T17:33:19;8.10;;;5.10;;
2338;SDS011;1180;51.438;6.978;2022-11-06T17:35:45;5.80;;;2.60;;
2338;SDS011;1180;51.438;6.978;2022-11-06T17:38:12;3.93;;;3.27;;
2338;SDS011;1180;51.438;6.978;2022-11-06T17:40:39;2.80;;;2.30;;
2338;SDS011;1180;51.438;6.978;2022-11-06T17:43:05;3.20;;;2.37;;
2338;SDS011;1180;51.438;6.978;2022-11-06T17:45:30;4.37;;;2.37;;
2338;SDS011;1180;51.438;6.978;2022-11-06T17:47:56;2.97;;;2.57;;
2338;SDS011;1180;51.438;6.978;2022-11-06T17:50:21;5.13;;;2.17;;
2338;SDS011;1180;51.438;6.978;2022-11-06T17:52:47;2.40;;;2.03;;
2338;SDS011;1180;51.438;6.978;2022-11-06T17:55:12;2.00;;;1.80;;
2338;SDS011;1180;51.438;6.978;2022-11-06T17:57:38;2.20;;;2.00;;
2338;SDS011;1180;51.438;6.978;2022-11-06T18:00:04;2.83;;;2.22;;
2338;SDS011;1180;51.438;6.978;2022-11-06T18:02:30;5.67;;;2.03;;
2338;SDS011;1180;51.438;6.978;2022-11-06T18:04:56;3.70;;;2.50;;
2338;SDS011;1180;51.438;6.978;2022-11-06T18:07:22;4.60;;;2.80;;
2338;SDS011;1180;51.438;6.978;2022-11-06T18:09:47;3.17;;;2.47;;
2338;SDS011;1180;51.438;6.978;2022-11-06T18:12:13;3.67;;;2.10;;
2338;SDS011;1180;51.438;6.978;2022-11-06T18:14:39;3.00;;;2.17;;